sensor_id;sensor_type;location;lat;lon;timestamp;P1;durP1;ratioP1;P2;durP2;ratioP2
62052;SDS011;48300;52.902;6.534;2024-03-02T00:01:51;5.93;;;2.50;;
62052;SDS011;48300;52.902;6.534;2024-03-02T00:04:17;3.55;;;2.38;;
62052;SDS011;48300;52.902;6.534;2024-03-02T00:06:43;4.68;;;2.60;;
62052;SDS011;48300;52.902;6.534;2024-03-02T00:09:10;5.47;;;2.13;;
62052;SDS011;48300;52.902;6.534;2024-03-02T00:11:37;4.65;;;2.63;;
62052;SDS011;48300;52.902;6.534;2024-03-02T00:14:04;6.07;;;2.47;;
62052;SDS011;48300;52.902;6.534;2024-03-02T00:16:30;4.70;;;2.53;;
62052;SDS011;48300;52.902;6.534;2024-03-02T00:19:00;5.88;;;2.80;;
62052;SDS011;48300;52.902;6.534;2024-03-02T00:21:27;4.25;;;2.25;;
62052;SDS011;48300;52.902;6.534;2024-03-02T00:23:53;5.38;;;2.65;;
62052;SDS011;48300;52.902;6.534;2024-03-02T00:26:19;4.60;;;2.15;;
62052;SDS011;48300;52.902;6.534;2024-03-02T00:28:45;4.45;;;2.30;;
62052;SDS011;48300;52.902;6.534;2024-03-02T00:31:12;4.68;;;2.50;;
62052;SDS011;48300;52.902;6.534;2024-03-02T00:33:42;4.10;;;2.30;;
62052;SDS011;48300;52.902;6.534;2024-03-02T00:36:08;4.85;;;2.42;;
62052;SDS011;48300;52.902;6.534;2024-03-02T00:38:49;5.05;;;2.38;;
62052;SDS011;48300;52.902;6.534;2024-03-02T00:41:16;4.10;;;2.00;;
62052;SDS011;48300;52.902;6.534;2024-03-02T00:43:44;4.43;;;2.40;;
62052;SDS011;48300;52.902;6.534;2024-03-02T00:46:17;8.02;;;2.53;;
62052;SDS011;48300;52.902;6.534;2024-03-02T00:48:57;3.10;;;1.92;;
62052;SDS011;48300;52.902;6.534;2024-03-02T00:51:24;3.15;;;1.90;;
62052;SDS011;48300;52.902;6.534;2024-03-02T00:53:51;4.05;;;2.10;;
62052;SDS011;48300;52.902;6.534;2024-03-02T00:56:17;6.10;;;2.05;;
62052;SDS011;48300;52.902;6.534;2024-03-02T00:58:44;7.05;;;2.60;;
62052;SDS011;48300;52.902;6.534;2024-03-02T01:01:10;3.45;;;2.15;;
62052;SDS011;48300;52.902;6.534;2024-03-02T01:03:36;4.78;;;2.38;;
62052;SDS011;48300;52.902;6.534;2024-03-02T01:06:02;6.43;;;2.50;;
62052;SDS011;48300;52.902;6.534;2024-03-02T01:08:28;3.08;;;2.20;;
62052;SDS011;48300;52.902;6.534;2024-03-02T01:10:54;4.78;;;2.50;;
62052;SDS011;48300;52.902;6.534;2024-03-02T01:13:23;7.53;;;2.65;;
62052;SDS011;48300;52.902;6.534;2024-03-02T01:15:50;6.05;;;1.98;;
62052;SDS011;48300;52.902;6.534;2024-03-02T01:18:16;3.58;;;2.20;;
62052;SDS011;48300;52.902;6.534;2024-03-02T01:20:42;3.67;;;2.28;;
62052;SDS011;48300;52.902;6.534;2024-03-02T01:23:08;4.97;;;2.40;;
62052;SDS011;48300;52.902;6.534;2024-03-02T01:25:34;3.58;;;2.30;;
62052;SDS011;48300;52.902;6.534;2024-03-02T01:28:00;4.40;;;2.22;;
62052;SDS011;48300;52.902;6.534;2024-03-02T01:30:26;4.80;;;2.05;;
62052;SDS011;48300;52.902;6.534;2024-03-02T01:32:52;3.63;;;2.15;;
62052;SDS011;48300;52.902;6.534;2024-03-02T01:35:18;5.38;;;2.50;;
62052;SDS011;48300;52.902;6.534;2024-03-02T01:37:44;3.97;;;2.65;;
62052;SDS011;48300;52.902;6.534;2024-03-02T01:40:10;4.00;;;2.15;;
62052;SDS011;48300;52.902;6.534;2024-03-02T01:42:37;6.63;;;2.35;;
62052;SDS011;48300;52.902;6.534;2024-03-02T01:45:04;5.25;;;2.58;;
62052;SDS011;48300;52.902;6.534;2024-03-02T01:47:30;6.53;;;2.40;;
62052;SDS011;48300;52.902;6.534;2024-03-02T01:49:57;5.22;;;2.15;;
62052;SDS011;48300;52.902;6.534;2024-03-02T01:52:23;5.20;;;2.25;;
62052;SDS011;48300;52.902;6.534;2024-03-02T01:54:49;3.50;;;2.05;;
62052;SDS011;48300;52.902;6.534;2024-03-02T01:57:15;4.57;;;2.15;;
62052;SDS011;48300;52.902;6.534;2024-03-02T01:59:42;4.78;;;2.13;;
62052;SDS011;48300;52.902;6.534;2024-03-02T02:02:08;4.80;;;2.38;;
62052;SDS011;48300;52.902;6.534;2024-03-02T02:04:34;6.40;;;2.55;;
62052;SDS011;48300;52.902;6.534;2024-03-02T02:07:00;4.47;;;2.20;;
62052;SDS011;48300;52.902;6.534;2024-03-02T02:09:26;4.20;;;2.85;;
62052;SDS011;48300;52.902;6.534;2024-03-02T02:11:52;3.47;;;2.20;;
62052;SDS011;48300;52.902;6.534;2024-03-02T02:14:18;4.72;;;2.75;;
62052;SDS011;48300;52.902;6.534;2024-03-02T02:16:44;5.13;;;2.47;;
62052;SDS011;48300;52.902;6.534;2024-03-02T02:19:10;5.40;;;2.10;;
62052;SDS011;48300;52.902;6.534;2024-03-02T02:21:36;3.80;;;2.38;;
62052;SDS011;48300;52.902;6.534;2024-03-02T02:24:03;3.63;;;2.20;;
62052;SDS011;48300;52.902;6.534;2024-03-02T02:26:29;5.65;;;2.50;;
62052;SDS011;48300;52.902;6.534;2024-03-02T02:28:55;3.90;;;2.13;;
62052;SDS011;48300;52.902;6.534;2024-03-02T02:31:21;5.95;;;2.10;;
62052;SDS011;48300;52.902;6.534;2024-03-02T02:33:47;3.17;;;1.98;;
62052;SDS011;48300;52.902;6.534;2024-03-02T02:36:13;4.15;;;2.38;;
62052;SDS011;48300;52.902;6.534;2024-03-02T02:38:40;5.90;;;2.45;;
62052;SDS011;48300;52.902;6.534;2024-03-02T02:41:08;4.93;;;2.50;;
62052;SDS011;48300;52.902;6.534;2024-03-02T02:43:34;3.30;;;1.98;;
62052;SDS011;48300;52.902;6.534;2024-03-02T02:46:00;3.80;;;1.92;;
62052;SDS011;48300;52.902;6.534;2024-03-02T02:48:26;6.80;;;2.30;;
62052;SDS011;48300;52.902;6.534;2024-03-02T02:50:52;4.38;;;1.80;;
62052;SDS011;48300;52.902;6.534;2024-03-02T02:53:18;5.95;;;2.20;;
62052;SDS011;48300;52.902;6.534;2024-03-02T02:55:44;5.93;;;2.92;;
62052;SDS011;48300;52.902;6.534;2024-03-02T02:58:10;4.20;;;2.08;;
62052;SDS011;48300;52.902;6.534;2024-03-02T03:00:36;4.20;;;1.88;;
62052;SDS011;48300;52.902;6.534;2024-03-02T03:03:02;4.18;;;2.20;;
62052;SDS011;48300;52.902;6.534;2024-03-02T03:05:28;4.63;;;2.40;;
62052;SDS011;48300;52.902;6.534;2024-03-02T03:07:54;6.65;;;2.20;;
62052;SDS011;48300;52.902;6.534;2024-03-02T03:10:20;4.32;;;2.22;;
62052;SDS011;48300;52.902;6.534;2024-03-02T03:12:48;6.05;;;1.85;;
62052;SDS011;48300;52.902;6.534;2024-03-02T03:15:14;4.05;;;1.83;;
62052;SDS011;48300;52.902;6.534;2024-03-02T03:17:41;4.20;;;2.22;;
62052;SDS011;48300;52.902;6.534;2024-03-02T03:20:07;5.72;;;2.38;;
62052;SDS011;48300;52.902;6.534;2024-03-02T03:22:40;3.72;;;2.22;;
62052;SDS011;48300;52.902;6.534;2024-03-02T03:25:06;5.95;;;2.20;;
62052;SDS011;48300;52.902;6.534;2024-03-02T03:27:35;3.30;;;1.77;;
62052;SDS011;48300;52.902;6.534;2024-03-02T03:30:01;4.13;;;1.85;;
62052;SDS011;48300;52.902;6.534;2024-03-02T03:32:28;4.30;;;2.10;;
62052;SDS011;48300;52.902;6.534;2024-03-02T03:34:54;4.72;;;2.45;;
62052;SDS011;48300;52.902;6.534;2024-03-02T03:37:20;4.05;;;2.08;;
62052;SDS011;48300;52.902;6.534;2024-03-02T03:39:46;3.80;;;2.13;;
62052;SDS011;48300;52.902;6.534;2024-03-02T03:42:12;4.43;;;2.20;;
62052;SDS011;48300;52.902;6.534;2024-03-02T03:44:38;5.60;;;2.45;;
62052;SDS011;48300;52.902;6.534;2024-03-02T03:47:05;7.93;;;2.20;;
62052;SDS011;48300;52.902;6.534;2024-03-02T03:49:31;5.65;;;2.03;;
62052;SDS011;48300;52.902;6.534;2024-03-02T03:51:57;4.28;;;2.15;;
62052;SDS011;48300;52.902;6.534;2024-03-02T03:54:23;4.13;;;2.22;;
62052;SDS011;48300;52.902;6.534;2024-03-02T03:56:49;3.47;;;1.90;;
62052;SDS011;48300;52.902;6.534;2024-03-02T03:59:15;4.45;;;2.25;;
62052;SDS011;48300;52.902;6.534;2024-03-02T04:01:41;3.40;;;1.80;;
62052;SDS011;48300;52.902;6.534;2024-03-02T04:04:07;5.13;;;1.90;;
62052;SDS011;48300;52.902;6.534;2024-03-02T04:06:33;3.05;;;1.77;;
62052;SDS011;48300;52.902;6.534;2024-03-02T04:08:59;3.97;;;2.05;;
62052;SDS011;48300;52.902;6.534;2024-03-02T04:11:25;3.88;;;2.30;;
62052;SDS011;48300;52.902;6.534;2024-03-02T04:13:51;3.38;;;1.90;;
62052;SDS011;48300;52.902;6.534;2024-03-02T04:16:17;4.20;;;2.03;;
62052;SDS011;48300;52.902;6.534;2024-03-02T04:18:43;3.20;;;1.80;;
62052;SDS011;48300;52.902;6.534;2024-03-02T04:21:09;5.00;;;2.25;;
62052;SDS011;48300;52.902;6.534;2024-03-02T04:23:36;5.43;;;2.10;;
62052;SDS011;48300;52.902;6.534;2024-03-02T04:26:02;4.75;;;2.38;;
62052;SDS011;48300;52.902;6.534;2024-03-02T04:28:29;6.75;;;2.63;;
62052;SDS011;48300;52.902;6.534;2024-03-02T04:30:55;4.22;;;2.17;;
62052;SDS011;48300;52.902;6.534;2024-03-02T04:33:21;6.28;;;2.33;;
62052;SDS011;48300;52.902;6.534;2024-03-02T04:35:47;4.50;;;2.60;;
62052;SDS011;48300;52.902;6.534;2024-03-02T04:38:13;3.72;;;2.33;;
62052;SDS011;48300;52.902;6.534;2024-03-02T04:40:39;3.28;;;2.10;;
62052;SDS011;48300;52.902;6.534;2024-03-02T04:43:04;4.20;;;1.92;;
62052;SDS011;48300;52.902;6.534;2024-03-02T04:45:31;4.32;;;2.03;;
62052;SDS011;48300;52.902;6.534;2024-03-02T04:47:56;3.25;;;2.10;;
62052;SDS011;48300;52.902;6.534;2024-03-02T04:50:22;3.67;;;2.15;;
62052;SDS011;48300;52.902;6.534;2024-03-02T04:52:48;4.65;;;2.53;;
62052;SDS011;48300;52.902;6.534;2024-03-02T04:55:14;6.68;;;2.50;;
62052;SDS011;48300;52.902;6.534;2024-03-02T04:57:40;3.15;;;2.03;;
62052;SDS011;48300;52.902;6.534;2024-03-02T05:00:06;6.03;;;2.03;;
62052;SDS011;48300;52.902;6.534;2024-03-02T05:02:34;4.47;;;2.72;;
62052;SDS011;48300;52.902;6.534;2024-03-02T05:05:00;5.93;;;2.67;;
62052;SDS011;48300;52.902;6.534;2024-03-02T05:07:26;5.35;;;2.30;;
62052;SDS011;48300;52.902;6.534;2024-03-02T05:09:52;5.75;;;2.38;;
62052;SDS011;48300;52.902;6.534;2024-03-02T05:12:18;4.22;;;2.55;;
62052;SDS011;48300;52.902;6.534;2024-03-02T05:15:03;4.88;;;2.22;;
62052;SDS011;48300;52.902;6.534;2024-03-02T05:17:29;4.80;;;2.30;;
62052;SDS011;48300;52.902;6.534;2024-03-02T05:19:55;4.85;;;2.22;;
62052;SDS011;48300;52.902;6.534;2024-03-02T05:22:21;4.05;;;2.38;;
62052;SDS011;48300;52.902;6.534;2024-03-02T05:24:47;3.88;;;1.92;;
62052;SDS011;48300;52.902;6.534;2024-03-02T05:27:13;4.47;;;2.15;;
62052;SDS011;48300;52.902;6.534;2024-03-02T05:29:39;6.15;;;3.22;;
62052;SDS011;48300;52.902;6.534;2024-03-02T05:32:05;4.03;;;1.98;;
62052;SDS011;48300;52.902;6.534;2024-03-02T05:34:31;4.63;;;2.45;;
62052;SDS011;48300;52.902;6.534;2024-03-02T05:37:00;3.58;;;2.20;;
62052;SDS011;48300;52.902;6.534;2024-03-02T05:39:26;6.15;;;2.15;;
62052;SDS011;48300;52.902;6.534;2024-03-02T05:41:52;4.57;;;2.22;;
62052;SDS011;48300;52.902;6.534;2024-03-02T05:44:18;7.88;;;2.00;;
62052;SDS011;48300;52.902;6.534;2024-03-02T05:46:44;4.95;;;2.38;;
62052;SDS011;48300;52.902;6.534;2024-03-02T05:49:11;4.55;;;2.17;;
62052;SDS011;48300;52.902;6.534;2024-03-02T05:51:37;4.93;;;2.05;;
62052;SDS011;48300;52.902;6.534;2024-03-02T05:54:03;4.95;;;1.80;;
62052;SDS011;48300;52.902;6.534;2024-03-02T05:56:29;6.93;;;2.17;;
62052;SDS011;48300;52.902;6.534;2024-03-02T05:58:55;2.65;;;1.80;;
62052;SDS011;48300;52.902;6.534;2024-03-02T06:01:44;4.40;;;1.90;;
62052;SDS011;48300;52.902;6.534;2024-03-02T06:04:11;6.35;;;2.42;;
62052;SDS011;48300;52.902;6.534;2024-03-02T06:06:37;7.57;;;1.90;;
62052;SDS011;48300;52.902;6.534;2024-03-02T06:09:04;5.32;;;2.50;;
62052;SDS011;48300;52.902;6.534;2024-03-02T06:11:36;3.97;;;2.13;;
62052;SDS011;48300;52.902;6.534;2024-03-02T06:14:02;5.55;;;2.15;;
62052;SDS011;48300;52.902;6.534;2024-03-02T06:16:28;3.28;;;1.60;;
62052;SDS011;48300;52.902;6.534;2024-03-02T06:18:55;5.85;;;1.95;;
62052;SDS011;48300;52.902;6.534;2024-03-02T06:21:22;2.97;;;2.10;;
62052;SDS011;48300;52.902;6.534;2024-03-02T06:23:48;8.68;;;2.13;;
62052;SDS011;48300;52.902;6.534;2024-03-02T06:26:15;3.45;;;1.98;;
62052;SDS011;48300;52.902;6.534;2024-03-02T06:28:41;4.38;;;1.77;;
62052;SDS011;48300;52.902;6.534;2024-03-02T06:31:07;5.03;;;2.00;;
62052;SDS011;48300;52.902;6.534;2024-03-02T06:33:34;6.20;;;1.90;;
62052;SDS011;48300;52.902;6.534;2024-03-02T06:36:00;4.05;;;2.03;;
62052;SDS011;48300;52.902;6.534;2024-03-02T06:38:26;2.60;;;1.70;;
62052;SDS011;48300;52.902;6.534;2024-03-02T06:40:52;5.13;;;1.85;;
62052;SDS011;48300;52.902;6.534;2024-03-02T06:43:18;6.07;;;2.08;;
62052;SDS011;48300;52.902;6.534;2024-03-02T06:45:48;3.10;;;1.60;;
62052;SDS011;48300;52.902;6.534;2024-03-02T06:48:14;2.70;;;1.38;;
62052;SDS011;48300;52.902;6.534;2024-03-02T06:50:44;5.60;;;1.40;;
62052;SDS011;48300;52.902;6.534;2024-03-02T06:53:10;3.38;;;1.05;;
62052;SDS011;48300;52.902;6.534;2024-03-02T06:55:36;2.28;;;1.27;;
62052;SDS011;48300;52.902;6.534;2024-03-02T06:58:02;1.63;;;0.98;;
62052;SDS011;48300;52.902;6.534;2024-03-02T07:00:28;3.63;;;0.80;;
62052;SDS011;48300;52.902;6.534;2024-03-02T07:02:54;2.33;;;0.80;;
62052;SDS011;48300;52.902;6.534;2024-03-02T07:05:20;2.45;;;0.85;;
62052;SDS011;48300;52.902;6.534;2024-03-02T07:07:46;2.53;;;0.70;;
62052;SDS011;48300;52.902;6.534;2024-03-02T07:10:12;12.27;;;4.35;;
62052;SDS011;48300;52.902;6.534;2024-03-02T07:12:38;1.02;;;0.50;;
62052;SDS011;48300;52.902;6.534;2024-03-02T07:15:04;16.00;;;5.60;;
62052;SDS011;48300;52.902;6.534;2024-03-02T07:17:31;19.88;;;15.38;;
62052;SDS011;48300;52.902;6.534;2024-03-02T07:19:57;1.50;;;0.25;;
62052;SDS011;48300;52.902;6.534;2024-03-02T07:22:23;0.95;;;0.30;;
62052;SDS011;48300;52.902;6.534;2024-03-02T07:24:49;1.00;;;0.30;;
62052;SDS011;48300;52.902;6.534;2024-03-02T07:27:16;0.63;;;0.32;;
62052;SDS011;48300;52.902;6.534;2024-03-02T07:29:42;0.70;;;0.43;;
62052;SDS011;48300;52.902;6.534;2024-03-02T07:32:11;0.82;;;0.30;;
62052;SDS011;48300;52.902;6.534;2024-03-02T07:34:37;2.17;;;0.22;;
62052;SDS011;48300;52.902;6.534;2024-03-02T07:37:03;0.73;;;0.30;;
62052;SDS011;48300;52.902;6.534;2024-03-02T07:39:29;0.88;;;0.50;;
62052;SDS011;48300;52.902;6.534;2024-03-02T07:41:55;5.55;;;0.20;;
62052;SDS011;48300;52.902;6.534;2024-03-02T07:44:21;27.27;;;11.75;;
62052;SDS011;48300;52.902;6.534;2024-03-02T07:46:48;2.95;;;0.50;;
62052;SDS011;48300;52.902;6.534;2024-03-02T07:49:20;2.83;;;0.35;;
62052;SDS011;48300;52.902;6.534;2024-03-02T07:51:46;4.43;;;1.48;;
62052;SDS011;48300;52.902;6.534;2024-03-02T07:54:12;0.95;;;0.40;;
62052;SDS011;48300;52.902;6.534;2024-03-02T07:56:38;2.90;;;0.90;;
62052;SDS011;48300;52.902;6.534;2024-03-02T07:59:04;1.80;;;0.40;;
62052;SDS011;48300;52.902;6.534;2024-03-02T08:01:31;2.67;;;0.43;;
62052;SDS011;48300;52.902;6.534;2024-03-02T08:03:58;3.85;;;0.63;;
62052;SDS011;48300;52.902;6.534;2024-03-02T08:06:25;1.10;;;0.45;;
62052;SDS011;48300;52.902;6.534;2024-03-02T08:08:55;1.63;;;0.38;;
62052;SDS011;48300;52.902;6.534;2024-03-02T08:11:21;35.83;;;26.67;;
62052;SDS011;48300;52.902;6.534;2024-03-02T08:13:47;0.95;;;0.30;;
62052;SDS011;48300;52.902;6.534;2024-03-02T08:16:14;1.05;;;0.65;;
62052;SDS011;48300;52.902;6.534;2024-03-02T08:18:40;3.00;;;0.47;;
62052;SDS011;48300;52.902;6.534;2024-03-02T08:21:06;0.57;;;0.32;;
62052;SDS011;48300;52.902;6.534;2024-03-02T08:23:33;11.43;;;8.38;;
62052;SDS011;48300;52.902;6.534;2024-03-02T08:25:59;3.58;;;0.90;;
62052;SDS011;48300;52.902;6.534;2024-03-02T08:28:25;5.82;;;3.00;;
62052;SDS011;48300;52.902;6.534;2024-03-02T08:30:51;27.20;;;22.95;;
62052;SDS011;48300;52.902;6.534;2024-03-02T08:33:17;6.55;;;4.38;;
62052;SDS011;48300;52.902;6.534;2024-03-02T08:35:43;2.40;;;0.90;;
62052;SDS011;48300;52.902;6.534;2024-03-02T08:38:09;3.58;;;1.00;;
62052;SDS011;48300;52.902;6.534;2024-03-02T08:40:35;59.78;;;38.10;;
62052;SDS011;48300;52.902;6.534;2024-03-02T08:43:01;19.83;;;11.00;;
62052;SDS011;48300;52.902;6.534;2024-03-02T08:45:27;3.30;;;0.73;;
62052;SDS011;48300;52.902;6.534;2024-03-02T08:47:53;3.10;;;1.00;;
62052;SDS011;48300;52.902;6.534;2024-03-02T08:50:19;1.90;;;0.60;;
62052;SDS011;48300;52.902;6.534;2024-03-02T08:52:45;2.67;;;0.60;;
62052;SDS011;48300;52.902;6.534;2024-03-02T08:55:11;29.00;;;26.15;;
62052;SDS011;48300;52.902;6.534;2024-03-02T08:57:37;1.88;;;1.00;;
62052;SDS011;48300;52.902;6.534;2024-03-02T09:00:04;60.83;;;40.13;;
62052;SDS011;48300;52.902;6.534;2024-03-02T09:02:30;6.25;;;3.80;;
62052;SDS011;48300;52.902;6.534;2024-03-02T09:04:56;3.75;;;1.60;;
62052;SDS011;48300;52.902;6.534;2024-03-02T09:07:23;27.02;;;16.80;;
62052;SDS011;48300;52.902;6.534;2024-03-02T09:09:49;10.90;;;7.68;;
62052;SDS011;48300;52.902;6.534;2024-03-02T09:12:15;40.67;;;25.50;;
62052;SDS011;48300;52.902;6.534;2024-03-02T09:14:41;42.05;;;24.27;;
62052;SDS011;48300;52.902;6.534;2024-03-02T09:17:07;4.47;;;2.67;;
62052;SDS011;48300;52.902;6.534;2024-03-02T09:19:35;3.17;;;2.10;;
62052;SDS011;48300;52.902;6.534;2024-03-02T09:22:01;16.83;;;12.52;;
62052;SDS011;48300;52.902;6.534;2024-03-02T09:24:28;2.78;;;0.93;;
62052;SDS011;48300;52.902;6.534;2024-03-02T09:26:54;2.90;;;1.17;;
62052;SDS011;48300;52.902;6.534;2024-03-02T09:29:20;2.67;;;1.65;;
62052;SDS011;48300;52.902;6.534;2024-03-02T09:31:46;9.52;;;5.35;;
62052;SDS011;48300;52.902;6.534;2024-03-02T09:34:12;8.68;;;5.78;;
62052;SDS011;48300;52.902;6.534;2024-03-02T09:36:39;1.98;;;0.90;;
62052;SDS011;48300;52.902;6.534;2024-03-02T09:39:07;4.88;;;0.90;;
62052;SDS011;48300;52.902;6.534;2024-03-02T09:41:34;3.47;;;1.40;;
62052;SDS011;48300;52.902;6.534;2024-03-02T09:44:02;4.35;;;2.78;;
62052;SDS011;48300;52.902;6.534;2024-03-02T09:46:28;1.08;;;0.50;;
62052;SDS011;48300;52.902;6.534;2024-03-02T09:48:54;8.02;;;6.93;;
62052;SDS011;48300;52.902;6.534;2024-03-02T09:51:20;1.95;;;0.68;;
62052;SDS011;48300;52.902;6.534;2024-03-02T09:53:46;1.33;;;0.70;;
62052;SDS011;48300;52.902;6.534;2024-03-02T09:56:13;3.58;;;1.00;;
62052;SDS011;48300;52.902;6.534;2024-03-02T09:58:41;6.15;;;3.17;;
62052;SDS011;48300;52.902;6.534;2024-03-02T10:01:07;3.40;;;0.65;;
62052;SDS011;48300;52.902;6.534;2024-03-02T10:03:37;69.82;;;47.92;;
62052;SDS011;48300;52.902;6.534;2024-03-02T10:06:24;83.65;;;54.92;;
62052;SDS011;48300;52.902;6.534;2024-03-02T10:08:50;9.43;;;1.52;;
62052;SDS011;48300;52.902;6.534;2024-03-02T10:11:33;4.00;;;1.48;;
62052;SDS011;48300;52.902;6.534;2024-03-02T10:14:08;4.68;;;2.67;;
62052;SDS011;48300;52.902;6.534;2024-03-02T10:16:35;1.75;;;0.95;;
62052;SDS011;48300;52.902;6.534;2024-03-02T10:19:18;4.32;;;0.60;;
62052;SDS011;48300;52.902;6.534;2024-03-02T10:21:48;4.80;;;1.45;;
62052;SDS011;48300;52.902;6.534;2024-03-02T10:24:20;2.70;;;1.83;;
62052;SDS011;48300;52.902;6.534;2024-03-02T10:26:47;4.00;;;1.48;;
62052;SDS011;48300;52.902;6.534;2024-03-02T10:29:13;3.35;;;0.70;;
62052;SDS011;48300;52.902;6.534;2024-03-02T10:31:40;1.38;;;0.90;;
62052;SDS011;48300;52.902;6.534;2024-03-02T10:34:06;2.58;;;0.73;;
62052;SDS011;48300;52.902;6.534;2024-03-02T10:36:36;3.05;;;0.60;;
62052;SDS011;48300;52.902;6.534;2024-03-02T10:39:06;1.30;;;0.40;;
62052;SDS011;48300;52.902;6.534;2024-03-02T10:41:33;3.25;;;0.80;;
62052;SDS011;48300;52.902;6.534;2024-03-02T10:43:59;1.50;;;0.70;;
62052;SDS011;48300;52.902;6.534;2024-03-02T10:46:28;1.70;;;0.50;;
62052;SDS011;48300;52.902;6.534;2024-03-02T10:48:54;2.53;;;0.90;;
62052;SDS011;48300;52.902;6.534;2024-03-02T10:51:21;3.05;;;0.40;;
62052;SDS011;48300;52.902;6.534;2024-03-02T10:53:47;2.05;;;0.60;;
62052;SDS011;48300;52.902;6.534;2024-03-02T10:56:14;3.38;;;0.60;;
62052;SDS011;48300;52.902;6.534;2024-03-02T10:58:41;1.10;;;0.50;;
62052;SDS011;48300;52.902;6.534;2024-03-02T11:01:07;2.33;;;0.55;;
62052;SDS011;48300;52.902;6.534;2024-03-02T11:03:37;2.10;;;0.52;;
62052;SDS011;48300;52.902;6.534;2024-03-02T11:06:03;1.20;;;0.40;;
62052;SDS011;48300;52.902;6.534;2024-03-02T11:08:33;0.80;;;0.40;;
62052;SDS011;48300;52.902;6.534;2024-03-02T11:11:03;9.32;;;5.30;;
62052;SDS011;48300;52.902;6.534;2024-03-02T11:13:32;1.08;;;0.50;;
62052;SDS011;48300;52.902;6.534;2024-03-02T11:15:59;8.18;;;3.42;;
62052;SDS011;48300;52.902;6.534;2024-03-02T11:18:29;5.82;;;0.57;;
62052;SDS011;48300;52.902;6.534;2024-03-02T11:20:55;6.88;;;3.85;;
62052;SDS011;48300;52.902;6.534;2024-03-02T11:23:31;3.53;;;0.60;;
62052;SDS011;48300;52.902;6.534;2024-03-02T11:26:17;1.48;;;0.50;;
62052;SDS011;48300;52.902;6.534;2024-03-02T11:28:46;4.10;;;0.73;;
62052;SDS011;48300;52.902;6.534;2024-03-02T11:31:12;1.42;;;0.40;;
62052;SDS011;48300;52.902;6.534;2024-03-02T11:33:38;1.13;;;0.45;;
62052;SDS011;48300;52.902;6.534;2024-03-02T11:36:06;3.33;;;0.70;;
62052;SDS011;48300;52.902;6.534;2024-03-02T11:38:32;3.20;;;0.40;;
62052;SDS011;48300;52.902;6.534;2024-03-02T11:41:02;6.93;;;0.70;;
62052;SDS011;48300;52.902;6.534;2024-03-02T11:43:29;4.90;;;0.80;;
62052;SDS011;48300;52.902;6.534;2024-03-02T11:45:57;10.70;;;4.43;;
62052;SDS011;48300;52.902;6.534;2024-03-02T11:48:23;5.47;;;1.23;;
62052;SDS011;48300;52.902;6.534;2024-03-02T11:50:50;3.60;;;0.60;;
62052;SDS011;48300;52.902;6.534;2024-03-02T11:53:16;1.27;;;0.47;;
62052;SDS011;48300;52.902;6.534;2024-03-02T11:55:43;1.17;;;0.40;;
62052;SDS011;48300;52.902;6.534;2024-03-02T11:58:13;2.90;;;0.60;;
62052;SDS011;48300;52.902;6.534;2024-03-02T12:00:39;2.83;;;0.95;;
62052;SDS011;48300;52.902;6.534;2024-03-02T12:03:06;1.33;;;0.50;;
62052;SDS011;48300;52.902;6.534;2024-03-02T12:05:33;2.67;;;0.60;;
62052;SDS011;48300;52.902;6.534;2024-03-02T12:07:59;4.05;;;0.60;;
62052;SDS011;48300;52.902;6.534;2024-03-02T12:10:26;1.15;;;0.40;;
62052;SDS011;48300;52.902;6.534;2024-03-02T12:12:58;2.95;;;0.57;;
62052;SDS011;48300;52.902;6.534;2024-03-02T12:15:28;4.35;;;0.70;;
62052;SDS011;48300;52.902;6.534;2024-03-02T12:17:55;1.23;;;0.60;;
62052;SDS011;48300;52.902;6.534;2024-03-02T12:20:21;2.05;;;0.50;;
62052;SDS011;48300;52.902;6.534;2024-03-02T12:22:49;2.45;;;0.73;;
62052;SDS011;48300;52.902;6.534;2024-03-02T12:25:15;2.78;;;0.65;;
62052;SDS011;48300;52.902;6.534;2024-03-02T12:27:42;2.58;;;0.88;;
62052;SDS011;48300;52.902;6.534;2024-03-02T12:30:08;4.15;;;0.95;;
62052;SDS011;48300;52.902;6.534;2024-03-02T12:32:36;1.58;;;1.00;;
62052;SDS011;48300;52.902;6.534;2024-03-02T12:35:04;2.60;;;1.20;;
62052;SDS011;48300;52.902;6.534;2024-03-02T12:37:30;2.25;;;1.20;;
62052;SDS011;48300;52.902;6.534;2024-03-02T12:39:56;2.22;;;1.45;;
62052;SDS011;48300;52.902;6.534;2024-03-02T12:42:25;6.68;;;2.78;;
62052;SDS011;48300;52.902;6.534;2024-03-02T12:44:52;11.38;;;6.95;;
62052;SDS011;48300;52.902;6.534;2024-03-02T12:47:19;14.07;;;9.95;;
62052;SDS011;48300;52.902;6.534;2024-03-02T12:49:45;12.93;;;8.65;;
62052;SDS011;48300;52.902;6.534;2024-03-02T12:52:12;6.70;;;3.92;;
62052;SDS011;48300;52.902;6.534;2024-03-02T12:54:38;20.50;;;10.18;;
62052;SDS011;48300;52.902;6.534;2024-03-02T12:57:04;3.95;;;1.70;;
62052;SDS011;48300;52.902;6.534;2024-03-02T12:59:30;3.88;;;2.05;;
62052;SDS011;48300;52.902;6.534;2024-03-02T13:01:56;4.55;;;2.47;;
62052;SDS011;48300;52.902;6.534;2024-03-02T13:04:26;2.03;;;1.15;;
62052;SDS011;48300;52.902;6.534;2024-03-02T13:06:54;2.78;;;1.08;;
62052;SDS011;48300;52.902;6.534;2024-03-02T13:09:22;7.65;;;3.28;;
62052;SDS011;48300;52.902;6.534;2024-03-02T13:11:48;6.85;;;1.58;;
62052;SDS011;48300;52.902;6.534;2024-03-02T13:14:15;3.78;;;1.10;;
62052;SDS011;48300;52.902;6.534;2024-03-02T13:16:41;2.67;;;0.75;;
62052;SDS011;48300;52.902;6.534;2024-03-02T13:19:08;3.67;;;1.10;;
62052;SDS011;48300;52.902;6.534;2024-03-02T13:21:34;2.28;;;1.02;;
62052;SDS011;48300;52.902;6.534;2024-03-02T13:24:00;148.75;;;73.78;;
62052;SDS011;48300;52.902;6.534;2024-03-02T13:26:26;465.98;;;244.68;;
62052;SDS011;48300;52.902;6.534;2024-03-02T13:28:52;385.60;;;198.07;;
62052;SDS011;48300;52.902;6.534;2024-03-02T13:31:18;95.70;;;45.45;;
62052;SDS011;48300;52.902;6.534;2024-03-02T13:33:45;9.88;;;3.60;;
62052;SDS011;48300;52.902;6.534;2024-03-02T13:36:12;3.35;;;1.58;;
62052;SDS011;48300;52.902;6.534;2024-03-02T13:38:38;6.43;;;4.38;;
62052;SDS011;48300;52.902;6.534;2024-03-02T13:41:04;2.88;;;2.58;;
62052;SDS011;48300;52.902;6.534;2024-03-02T13:43:30;13.88;;;2.45;;
62052;SDS011;48300;52.902;6.534;2024-03-02T13:45:57;89.05;;;9.32;;
62052;SDS011;48300;52.902;6.534;2024-03-02T13:48:24;9.25;;;5.20;;
62052;SDS011;48300;52.902;6.534;2024-03-02T13:50:52;27.17;;;9.63;;
62052;SDS011;48300;52.902;6.534;2024-03-02T13:53:19;29.00;;;5.68;;
62052;SDS011;48300;52.902;6.534;2024-03-02T13:55:45;58.97;;;8.00;;
62052;SDS011;48300;52.902;6.534;2024-03-02T13:58:11;57.88;;;7.78;;
62052;SDS011;48300;52.902;6.534;2024-03-02T14:00:38;168.63;;;14.95;;
62052;SDS011;48300;52.902;6.534;2024-03-02T14:03:04;32.20;;;6.25;;
62052;SDS011;48300;52.902;6.534;2024-03-02T14:05:31;14.00;;;5.15;;
62052;SDS011;48300;52.902;6.534;2024-03-02T14:07:57;13.95;;;4.60;;
62052;SDS011;48300;52.902;6.534;2024-03-02T14:10:26;9.77;;;4.97;;
62052;SDS011;48300;52.902;6.534;2024-03-02T14:12:53;5.55;;;3.08;;
62052;SDS011;48300;52.902;6.534;2024-03-02T14:15:20;10.77;;;4.57;;
62052;SDS011;48300;52.902;6.534;2024-03-02T14:17:46;3.85;;;2.67;;
62052;SDS011;48300;52.902;6.534;2024-03-02T14:20:12;120.70;;;12.63;;
62052;SDS011;48300;52.902;6.534;2024-03-02T14:22:38;20.15;;;3.47;;
62052;SDS011;48300;52.902;6.534;2024-03-02T14:25:04;76.70;;;6.88;;
62052;SDS011;48300;52.902;6.534;2024-03-02T14:27:31;69.18;;;7.65;;
62052;SDS011;48300;52.902;6.534;2024-03-02T14:29:57;15.77;;;2.38;;
62052;SDS011;48300;52.902;6.534;2024-03-02T14:32:23;7.68;;;1.73;;
62052;SDS011;48300;52.902;6.534;2024-03-02T14:34:49;51.78;;;11.43;;
62052;SDS011;48300;52.902;6.534;2024-03-02T14:37:15;1.98;;;1.30;;
62052;SDS011;48300;52.902;6.534;2024-03-02T14:39:41;165.55;;;29.75;;
62052;SDS011;48300;52.902;6.534;2024-03-02T14:42:07;509.85;;;44.80;;
62052;SDS011;48300;52.902;6.534;2024-03-02T14:44:33;5.80;;;1.45;;